Nearby METAR Reports

 

YSRI - Richmond (aus-Af, Australia
Distance from station: WSW 35km
Updated: 24/09/2018 11:30
Overcast
Overcast
 Wind from SSE
Wind: SSE 11 km/h
Temperature: 15°C
Dew Point: 7°C
Humidity: 59%
Barometer: 1029 hPa
Clouds: Overcast
Visibility: 10 km
Cloud details: Overcast 1067 m
2018/09/24 01:30 YSRI 240130Z AUTO 15006KT 110V190 9999 // OVC035 15/07 Q1029
YSSY - Sydney Intl Airp, Australia
Distance from station: S 47km
Updated: 24/09/2018 11:30
Mostly cloudy
Mostly cloudy
 Wind from S
Wind: S 37 km/h
Temperature: 14°C
Dew Point: 10°C
Humidity: 77%
Barometer: 1029 hPa
Clouds: Mostly cloudy
Visibility: 10 km
Cloud details: Partly cloudy 610 m
Mostly cloudy 1219 m
2018/09/24 01:30 YSSY 240130Z 19020KT 9999 SCT020 BKN040 14/10 Q1029 NOSIG
YWLM - Williamtown Arp, Australia
Distance from station: NE 104km
Updated: 24/09/2018 11:30
Nearby showers, Mostly cloudy
Nearby showers, Mostly cloudy
 Wind from SE
Wind: SE 28 km/h
Temperature: 14°C
Dew Point: 13°C
Humidity: 94%
Barometer: 1028 hPa
Summary: Nearby Showers
Clouds: Mostly cloudy
Visibility: 10 km
Cloud details: Few Clouds 305 m
Partly cloudy 1433 m
Mostly cloudy 2042 m
2018/09/24 01:30 YWLM 240130Z 13015KT 9999 VCSH FEW010 SCT047 BKN067 14/13 Q1028
 
YSNW - Nowra (aus-Navy), Australia
Distance from station: SSW 168km
Updated: 24/09/2018 11:00
Mostly cloudy
Mostly cloudy
 Wind from SSE
Wind: SSE 24 km/h
Temperature: 14°C
Dew Point: 6°C
Humidity: 59%
Barometer: 1030 hPa
Clouds: Mostly cloudy
Visibility: 10 km
Cloud details: Few Clouds 884 m
Partly cloudy 1341 m
Mostly cloudy 1615 m
2018/09/24 01:00 YSNW 240100Z 15013KT 9999 FEW029 SCT044 BKN053 14/06 Q1030 INTER 0100/0400 5000 SHRA BKN015
YMDG - Mudgee Arpt, Australia
Distance from station: NW 177km
Updated: 24/09/2018 11:00
Mostly cloudy
Mostly cloudy
 Wind from SE
Wind: SE 19 km/h
Temperature: 15°C
Dew Point: 7°C
Humidity: 59%
Barometer: 1027 hPa
Clouds: Mostly cloudy
Visibility: 10 km
Cloud details: Mostly cloudy 1097 m
2018/09/24 01:00 YMDG 240100Z AUTO 14010KT 9999 // BKN036 15/07 Q1027
YTRE - Taree Airport, Australia
Distance from station: NE 224km
Updated: 24/09/2018 11:00
Overcast
Overcast
 Wind from S
Wind: S 17 km/h
Temperature: 16°C
Dew Point: 10°C
Humidity: 68%
Barometer: 1028 hPa
Clouds: Overcast
Visibility: 10 km
Cloud details: Overcast 1250 m
2018/09/24 01:00 YTRE 240100Z AUTO 17009KT 9999 // OVC041 16/10 Q1028
 
YSCB - Canberra (civ/Mi, Australia
Distance from station: SW 265km
Updated: 24/09/2018 11:30
Partly cloudy
Partly cloudy
 Wind from E
Wind: E 11 km/h
Temperature: 13°C
Dew Point: 0°C
Humidity: 41%
Barometer: 1029 hPa
Clouds: Partly cloudy
Visibility: 10 km
Cloud details: Partly cloudy 1463 m
2018/09/24 01:30 YSCB 240130Z 09006KT 9999 SCT048 13/M00 Q1029 NOSIG
YSTW - Tamworth Airport, Australia
Distance from station: N 275km
Updated: 24/09/2018 11:30
Mostly cloudy
Mostly cloudy
 Wind from ESE
Wind: ESE 22 km/h
Temperature: 21°C
Dew Point: 5°C
Humidity: 35%
Barometer: 1024 hPa
Clouds: Mostly cloudy
Visibility: 10 km
Cloud details: Mostly cloudy 1829 m
2018/09/24 01:30 YSTW 240130Z AUTO 12012KT 9999 // BKN060 21/05 Q1024 RF00.0/000.0
YSDU - Dubbo, Australia
Distance from station: WNW 280km
Updated: 24/09/2018 11:30
Clear
Clear
 Wind from ESE
Wind: ESE 28 km/h, Gust: 46 km/h
Temperature: 20°C
Dew Point: 6°C
Humidity: 40%
Barometer: 1025 hPa
Clouds: Clear
Visibility: 10 km
2018/09/24 01:30 YSDU 240130Z AUTO 11015G25KT 9999 // NCD 20/06 Q1025
 
YPMQ - Port Macquarie, Australia
Distance from station: NE 284km
Updated: 24/09/2018 10:20
NOT Current
Mostly cloudy
Mostly cloudy
 Wind from S
Wind: S 22 km/h
Temperature: 15°C
Dew Point: 13°C
Humidity: 88%
Barometer: 1027 hPa
Clouds: Mostly cloudy
Visibility: 10 km
Cloud details: Partly cloudy 366 m
Partly cloudy 671 m
Mostly cloudy 975 m
2018/09/24 00:20 YPMQ 240020Z AUTO 19012KT 9999 // SCT012 SCT022 BKN032 15/13 Q1027
YCBB - Coonabarabran, Australia
Distance from station: NW 300km
Updated: 24/09/2018 11:00
Partly cloudy
Partly cloudy
 Wind from ENE
Wind: ENE 22 km/h
Temperature: 18°C
Dew Point: 7°C
Humidity: 49%
Barometer: 1025 hPa
Clouds: Partly cloudy
Visibility: 10 km
Cloud details: Partly cloudy 1036 m
2018/09/24 01:00 YCBB 240100Z AUTO 07012KT 030V090 9999 // SCT034 18/07 Q1025